x

West Lake Ontario - Grimsby (45139) Wave Buoy

10:00am - Wed 28th Sep 2016 All times are CDT. -5 hours from GMT.

  • Sig Wave height 0.7ft
  • Peak Period 2s
  • Wind
    13mph
  • Sea Temp 67°f
  • Air Temp 69°f
  • Sea Pressure 1015.7mb
  • West Lake Ontario - Grimsby
  • West Lake Ontario - Grimsby

More Historic Weather Station data

Upgrade to MSW Pro to gain access to the past 30 days of data for over 8000 Wavebouys and Weather Stations around the globe.

Join Pro

Comparision Forecast

View Surf forecast
   
Wed 09/28 10:00am 0.7ft 2s 13
mph
1015.7mb 67f 69f
9:00am 0.7ft 2s 13 16 mph 1015.4mb 67f 67f
8:00am 0.7ft 2s 11 13 mph 1014.5mb 67f 66f
7:00am 1ft 2s 11 13 mph 1013.9mb 67f 65f
6:00am 0.7ft 2s 13 18 mph 1013.4mb 67f 64f
5:00am 0.3ft 2s 9 13 mph 1013.2mb 67f 64f
4:00am 0.3ft 2s 7 9 mph 1012.8mb 67f 65f
3:00am 0.3ft 2s 7 9 mph 1011.9mb 67f 66f
2:00am 0.3ft 2s 7 9 mph 1011.8mb 67f 65f
1:00am 0.3ft 2s 11
mph
1011.5mb 67f 65f
12:00am 0.3ft 2s 9 11 mph 1011.2mb 67f 65f
Tue 09/27 11:00pm 0.3ft 2s 9 11 mph 1010.9mb 67f 65f
10:00pm 0.3ft 2s 9 11 mph 1010.9mb 67f 65f
9:00pm 0.3ft 2s 11 13 mph 1010.4mb 67f 66f
8:00pm 0.3ft 2s 9 11 mph 1010.1mb 67f 66f
7:00pm 0.3ft 2s 11
mph
1009.6mb 67f 67f
6:00pm 0.7ft 3s 9 11 mph 1009.1mb 67f 68f
5:00pm 1.3ft 3s 13 16 mph 1008.3mb 67f 69f
4:00pm 1.6ft 3s 20 22 mph 1007.5mb 67f 70f
3:00pm 1.6ft 3s 22 27 mph 1007.1mb 67f 70f
2:00pm 1.6ft 3s 25 31 mph 1006.9mb 67f 69f
1:00pm 1.3ft 3s 22 36 mph 1007.1mb 67f 68f
12:00pm 1ft 2s 22 31 mph 1007.3mb 67f 68f
11:00am 1.3ft 3s 16 18 mph 1007.8mb 67f 65f
10:00am 1.3ft 3s 25 31 mph 1008.3mb 67f 64f
9:00am 0.7ft 2s 18 22 mph 1008.6mb 67f 65f
8:00am 1ft 2s 13 16 mph 1009mb 67f 63f
7:00am 1ft 2s 13 16 mph 1009.1mb 67f 61f
6:00am 1ft 2s 13 18 mph 1009.3mb 67f 60f
5:00am 0.7ft 2s 13 16 mph 1009.4mb 67f 61f
4:00am 0.7ft 2s 9 11 mph 1009.6mb 67f 59f
3:00am 1ft 3s 13 16 mph 1010.1mb 67f 59f
2:00am 1ft 2s 16 18 mph 1010.5mb 67f 60f
1:00am 1ft 3s 13 18 mph 1010.6mb 67f 61f
12:00am 1ft 2s 18 20 mph 1010.5mb 67f 63f
Mon 09/26 11:00pm 1.3ft 6s 18 20 mph 1011.1mb 67f 62f
10:00pm 1.3ft 2s 16 20 mph 1011.2mb 67f 62f
9:00pm 1.3ft 2s 18 22 mph 1011.5mb 67f 63f
8:00pm 1.3ft 5s 16 20 mph 1011.9mb 67f 62f
7:00pm 1.6ft 7s 13 16 mph 1011.8mb 67f 62f
6:00pm 1.6ft 6s 16 20 mph 1011mb 67f 64f
5:00pm 1.3ft 6s 13 16 mph 1010.6mb 67f 64f
4:00pm 1.3ft 6s 13 16 mph 1010mb 67f 66f
3:00pm 1.3ft 2s 11 13 mph 1009.9mb 67f 66f
2:00pm 1.3ft 5s 18 22 mph 1010.3mb 67f 67f
1:00pm 1.3ft 5s 11 13 mph 1009.6mb 67f 65f
12:00pm 1.6ft 5s 11 13 mph 1010.9mb 67f 64f
11:00am 1.6ft 6s 11 18 mph 1011.3mb 67f 63f
10:00am 1.6ft 4s 11 13 mph 1011mb 67f 67f
9:00am 2ft 4s 9 11 mph 1012mb 67f 66f
8:00am 2ft 5s 11 13 mph 1012.6mb 67f 64f
7:00am 2ft 4s 11 13 mph 1013mb 67f 62f
6:00am 2ft 5s 9 11 mph 1013.9mb 67f 61f
5:00am 1.6ft 5s 11 13 mph 1014.5mb 67f 61f
4:00am 1.6ft 4s 7 9 mph 1015.1mb 67f 61f
3:00am 1.6ft 4s 7 9 mph 1015.7mb 67f 60f
2:00am 1.6ft 4s 9 11 mph 1016.5mb 67f 59f
1:00am 1.6ft 4s 11 13 mph 1017.8mb 67f 58f
12:00am 1.6ft 4s 13 16 mph 1018.1mb 67f 58f
Sun 09/25 11:00pm 1.6ft 4s 13
mph
1018.9mb 67f 59f
10:00pm 1.3ft 3s 16 20 mph 1019.6mb 66f 60f
9:00pm 1.3ft 3s 16 18 mph 1020.4mb 66f 61f
8:00pm 1.3ft 3s 13 16 mph 1021mb 67f 62f
7:00pm 1.3ft 4s 9 11 mph 1021.3mb 67f 62f
6:00pm 1.3ft 3s 9 13 mph 1021.1mb 67f 62f
5:00pm 1.3ft 4s 11 13 mph 1021.4mb 67f 62f
4:00pm 1.3ft 4s 9 13 mph 1021.7mb 67f 62f
3:00pm 1.3ft 5s 11 13 mph 1022.2mb 68f 62f
2:00pm 1.6ft 5s 9 13 mph 1023.1mb 68f 61f
1:00pm 1.6ft 5s 9 13 mph 1023.3mb 67f 61f
12:00pm 2ft 5s 9 13 mph 1024.1mb 67f 60f
11:00am 2ft 5s 7 11 mph 1024.6mb 67f 60f
10:00am 2.5ft 5s 7 11 mph 1024.6mb 67f 60f
9:00am 2.5ft 5s 9 11 mph 1024.9mb 67f 60f
8:00am 2ft 5s 11 13 mph 1024.8mb 66f 59f
7:00am 2ft 4s 11 13 mph 1024.8mb 66f 59f
6:00am 2ft 4s 13 16 mph 1024.2mb 66f 59f
5:00am 2ft 4s 13 18 mph 1023.7mb 66f 60f
4:00am 1.6ft 4s 13 16 mph 1023.7mb 66f 62f
3:00am 2ft 4s 13 18 mph 1023.9mb 66f 62f
2:00am 2ft 4s 13 18 mph 1024mb 66f 62f
1:00am 1.3ft 3s 16 18 mph 1024.2mb 66f 62f
12:00am 1.3ft 3s 13 16 mph 1024.1mb 66f 61f
Sat 09/24 11:00pm 1.3ft 3s 13 18 mph 1024.2mb 67f 62f
10:00pm 0.7ft 4s 13 16 mph 1024mb 67f 62f
9:00pm 1ft 4s  -  2 mph 1024mb 66f 62f
8:00pm 1ft 4s 2 4 mph 1023.9mb 66f 62f
7:00pm 1ft 4s 4
mph
1023.5mb 66f 62f
6:00pm 1ft 4s 4
mph
1023.6mb 67f 62f
5:00pm 1.3ft 4s 4 7 mph 1023.6mb 67f 62f